Time;durP1;ratioP1;P1;durP2;ratioP2;P2;SDS_P1;SDS_P2;PMS_P1;PMS_P2;Temp;Humidity;BMP_temperature;BMP_pressure;BME280_temperature;BME280_humidity;BME280_pressure;Samples;Min_cycle;Max_cycle;Signal;HPM_P1;HPM_P2
2022/09/05 00:01:11;;;;;;;4.25;2.85;;;19.10;99.90;;;;;;4940211;28;20101;-70
2022/09/05 00:03:51;;;;;;;2.42;2.20;;;19.00;99.90;;;;;;4960485;28;20062;-70
2022/09/05 00:06:18;;;;;;;;;;;18.90;99.90;;;;;;5011751;28;20136;-70
2022/09/05 00:08:47;;;;;;;5.72;2.70;;;18.90;99.90;;;;;;5024747;28;19928;-69
2022/09/05 00:11:12;;;;;;;5.20;3.22;;;18.80;99.90;;;;;;5010866;28;20033;-69
2022/09/05 00:13:43;;;;;;;4.35;2.88;;;18.90;99.90;;;;;;5022754;28;20065;-70
2022/09/05 00:16:36;;;;;;;3.15;2.22;;;18.90;99.90;;;;;;5017361;28;20080;-70
2022/09/05 00:19:24;;;;;;;3.28;2.78;;;18.90;99.90;;;;;;5014467;28;20128;-71
2022/09/05 00:22:11;;;;;;;3.00;2.35;;;18.80;99.90;;;;;;5022791;28;20053;-69
2022/09/05 00:24:52;;;;;;;4.63;2.85;;;18.80;99.90;;;;;;5022886;28;20498;-71
2022/09/05 00:27:18;;;;;;;3.85;2.58;;;18.80;99.90;;;;;;5022627;28;20112;-70
2022/09/05 00:30:05;;;;;;;3.75;2.38;;;18.70;99.90;;;;;;5022390;28;20423;-70
2022/09/05 00:33:05;;;;;;;4.43;2.28;;;18.80;99.90;;;;;;5019303;28;20056;-70
2022/09/05 00:35:40;;;;;;;4.22;3.58;;;18.70;99.90;;;;;;5022737;28;20484;-70
2022/09/05 00:38:13;;;;;;;6.43;2.30;;;18.70;99.90;;;;;;5024111;28;20045;-70
2022/09/05 00:41:04;;;;;;;8.70;3.60;;;18.70;99.90;;;;;;5023153;28;20579;-70
2022/09/05 00:43:33;;;;;;;;;;;18.70;99.90;;;;;;5034173;28;20067;-70
2022/09/05 00:46:09;;;;;;;4.18;2.47;;;18.60;99.90;;;;;;5018518;28;20287;-69
2022/09/05 00:48:51;;;;;;;5.35;2.70;;;18.60;99.90;;;;;;5020673;28;20045;-71
2022/09/05 00:51:22;;;;;;;3.78;2.85;;;18.60;99.90;;;;;;5020741;28;20119;-70
2022/09/05 00:54:17;;;;;;;3.40;2.38;;;18.60;99.90;;;;;;5022257;28;20219;-70
2022/09/05 00:57:01;;;;;;;2.75;2.55;;;18.60;99.90;;;;;;5021852;28;20432;-70
2022/09/05 00:59:58;;;;;;;6.22;2.85;;;18.50;99.90;;;;;;5021607;28;20546;-70
2022/09/05 01:02:29;;;;;;;11.15;2.90;;;18.50;99.90;;;;;;5018580;28;20054;-70
2022/09/05 01:05:29;;;;;;;3.10;2.70;;;18.40;99.90;;;;;;5017364;28;20045;-70
2022/09/05 01:08:22;;;;;;;6.03;2.88;;;18.40;99.90;;;;;;5023930;28;20057;-70
2022/09/05 01:11:17;;;;;;;3.13;2.83;;;18.40;99.90;;;;;;5018591;28;20076;-70
2022/09/05 01:14:10;;;;;;;8.38;2.67;;;18.40;99.90;;;;;;5021122;28;20120;-70
2022/09/05 01:16:35;;;;;;;3.97;2.42;;;18.40;99.90;;;;;;5025472;28;20388;-70
2022/09/05 01:19:24;;;;;;;7.65;3.28;;;18.30;99.90;;;;;;5027853;28;20040;-70
2022/09/05 01:21:53;;;;;;;6.07;2.78;;;18.30;99.90;;;;;;5010697;28;20455;-70
2022/09/05 01:24:45;;;;;;;4.30;2.83;;;18.30;99.90;;;;;;5014821;28;20052;-71
2022/09/05 01:27:40;;;;;;;6.25;3.45;;;18.30;99.90;;;;;;5013090;28;20463;-70
2022/09/05 01:30:13;;;;;;;7.35;3.30;;;18.30;99.90;;;;;;5013534;28;20395;-70
2022/09/05 01:33:04;;;;;;;5.60;3.30;;;18.30;99.90;;;;;;5018421;28;20046;-69
2022/09/05 01:35:49;;;;;;;;;;;18.20;99.90;;;;;;5021582;28;20100;-70
2022/09/05 01:38:39;;;;;;;5.45;3.50;;;18.20;99.90;;;;;;5012637;28;19921;-69
2022/09/05 01:41:21;;;;;;;8.27;3.78;;;18.20;99.90;;;;;;5023470;28;20037;-70
2022/09/05 01:43:57;;;;;;;3.88;3.13;;;18.10;99.90;;;;;;5026610;28;20116;-70
2022/09/05 01:46:30;;;;;;;9.25;3.60;;;18.10;99.90;;;;;;5023746;28;20087;-70
2022/09/05 01:49:36;;;;;;;6.63;2.92;;;18.10;99.90;;;;;;5025190;28;20042;-70
2022/09/05 01:52:16;;;;;;;6.13;3.20;;;18.00;99.90;;;;;;5011276;28;20049;-70
2022/09/05 01:54:55;;;;;;;6.47;3.22;;;18.00;99.90;;;;;;5011829;28;20057;-70
2022/09/05 01:57:30;;;;;;;5.68;3.20;;;18.00;99.90;;;;;;5023600;28;20056;-70
2022/09/05 02:00:06;;;;;;;5.53;3.10;;;17.90;99.90;;;;;;5024451;28;20109;-70
2022/09/05 02:02:50;;;;;;;7.10;3.53;;;17.90;99.90;;;;;;5025381;28;20045;-70
2022/09/05 02:05:28;;;;;;;6.63;2.85;;;17.90;99.90;;;;;;5023056;28;20432;-70
2022/09/05 02:08:14;;;;;;;6.05;3.80;;;17.80;99.90;;;;;;5012406;28;20369;-70
2022/09/05 02:10:52;;;;;;;6.30;3.55;;;17.80;99.90;;;;;;5023102;28;20045;-69
2022/09/05 02:13:32;;;;;;;7.07;4.43;;;17.80;99.90;;;;;;5021440;28;20037;-69
2022/09/05 02:16:37;;;;;;;6.40;3.58;;;17.70;99.90;;;;;;5022757;28;20041;-70
2022/09/05 02:19:08;;;;;;;4.60;4.18;;;17.60;99.90;;;;;;5027196;28;20049;-69
2022/09/05 02:21:37;;;;;;;4.18;3.42;;;17.60;99.90;;;;;;5023241;28;20103;-69
2022/09/05 02:24:03;;;;;;;7.18;3.58;;;17.60;99.90;;;;;;5026201;28;20099;-70
2022/09/05 02:26:34;;;;;;;9.55;4.15;;;17.50;99.90;;;;;;5025437;28;20038;-70
2022/09/05 02:29:42;;;;;;;6.70;3.47;;;17.50;99.90;;;;;;5024367;28;20056;-70
2022/09/05 02:32:17;;;;;;;5.15;4.03;;;17.50;99.90;;;;;;5020432;28;20052;-71
2022/09/05 02:35:08;;;;;;;5.40;4.25;;;17.50;99.90;;;;;;5015271;28;20084;-70
2022/09/05 02:37:33;;;;;;;5.25;4.30;;;17.40;99.90;;;;;;5023115;28;20057;-70
2022/09/05 02:40:10;;;;;;;24.55;5.70;;;17.30;99.90;;;;;;5019069;28;20038;-70
2022/09/05 02:43:02;;;;;;;12.65;3.85;;;17.30;99.90;;;;;;5038225;28;20041;-71
2022/09/05 02:45:43;;;;;;;15.38;3.55;;;17.30;99.90;;;;;;5019654;28;20698;-70
2022/09/05 02:48:45;;;;;;;7.70;4.00;;;17.20;99.90;;;;;;5024339;28;20140;-70
2022/09/05 02:51:29;;;;;;;8.23;4.13;;;17.10;99.90;;;;;;5003410;28;20408;-69
2022/09/05 02:54:18;;;;;;;4.72;3.22;;;17.10;99.90;;;;;;5022413;28;20326;-69
2022/09/05 02:57:05;;;;;;;11.37;4.77;;;17.00;99.90;;;;;;5010927;28;20049;-69
2022/09/05 02:59:52;;;;;;;6.70;4.90;;;17.00;99.90;;;;;;5020676;28;20094;-69
2022/09/05 03:02:21;;;;;;;4.43;4.03;;;17.00;99.90;;;;;;5024429;28;20076;-69
2022/09/05 03:04:58;;;;;;;4.22;3.83;;;17.00;99.90;;;;;;5024014;28;20076;-69
2022/09/05 03:07:51;;;;;;;4.88;3.97;;;17.00;99.90;;;;;;5024467;28;20045;-69
2022/09/05 03:10:55;;;;;;;10.27;4.43;;;16.90;99.90;;;;;;5017830;28;20052;-70
2022/09/05 03:13:32;;;;;;;8.43;4.32;;;16.90;99.90;;;;;;5009151;28;20596;-70
2022/09/05 03:16:25;;;;;;;6.95;4.35;;;16.90;99.90;;;;;;5023126;28;20041;-70
2022/09/05 03:19:17;;;;;;;7.72;5.35;;;16.90;99.90;;;;;;5022994;28;20045;-70
2022/09/05 03:22:05;;;;;;;8.05;4.93;;;16.80;99.90;;;;;;5020845;28;20080;-69
2022/09/05 03:24:46;;;;;;;6.85;4.78;;;16.90;99.90;;;;;;5015141;28;20371;-70
2022/09/05 03:27:49;;;;;;;6.75;4.53;;;16.90;99.90;;;;;;5024904;28;20043;-70
2022/09/05 03:30:19;;;;;;;8.38;4.72;;;16.90;99.90;;;;;;4965519;28;20052;-70
2022/09/05 03:33:09;;;;;;;10.38;4.82;;;16.70;99.90;;;;;;5021113;28;20049;-70
2022/09/05 03:35:42;;;;;;;9.63;4.85;;;16.80;99.90;;;;;;5019753;28;20045;-72
2022/09/05 03:38:32;;;;;;;5.10;4.70;;;16.70;99.90;;;;;;5022572;28;20033;-69
2022/09/05 03:41:03;;;;;;;7.60;4.32;;;16.50;99.90;;;;;;5017053;28;20056;-70
2022/09/05 03:43:50;;;;;;;10.63;4.30;;;16.40;99.90;;;;;;5023796;28;20061;-70
2022/09/05 03:46:58;;;;;;;6.50;5.47;;;16.50;99.90;;;;;;5009746;28;20042;-69
2022/09/05 03:49:42;;;;;;;8.05;5.45;;;16.40;99.90;;;;;;4991717;28;20081;-69
2022/09/05 03:52:41;;;;;;;4.78;4.20;;;16.20;99.90;;;;;;5023230;28;20037;-70
2022/09/05 03:55:45;;;;;;;7.13;4.68;;;16.30;99.90;;;;;;5021088;28;20037;-69
2022/09/05 03:58:22;;;;;;;6.68;4.93;;;16.30;99.90;;;;;;5020930;28;20057;-70
2022/09/05 04:01:10;;;;;;;8.02;5.10;;;16.30;99.90;;;;;;5021305;28;20072;-70
2022/09/05 04:03:44;;;;;;;11.40;5.07;;;16.20;99.90;;;;;;5016427;28;20128;-70
2022/09/05 04:06:27;;;;;;;8.15;4.05;;;16.30;99.90;;;;;;5023615;28;20486;-70
2022/09/05 04:08:56;;;;;;;7.30;4.85;;;16.40;99.90;;;;;;5030938;28;20061;-69
2022/09/05 04:11:28;;;;;;;5.40;4.90;;;16.30;99.90;;;;;;5015646;28;20160;-70
2022/09/05 04:13:58;;;;;;;6.25;4.60;;;16.10;99.90;;;;;;5023272;28;20656;-70
2022/09/05 04:16:28;;;;;;;7.18;5.55;;;16.10;99.90;;;;;;5022692;28;20037;-69
2022/09/05 04:19:09;;;;;;;10.30;5.38;;;16.10;99.90;;;;;;5020351;28;20041;-70
2022/09/05 04:21:45;;;;;;;7.32;5.25;;;16.20;99.90;;;;;;5012771;28;20785;-70
2022/09/05 04:24:22;;;;;;;5.40;4.50;;;16.00;99.90;;;;;;5017477;28;20488;-71
2022/09/05 04:27:18;;;;;;;12.45;6.55;;;16.00;99.90;;;;;;5021330;28;20160;-69
2022/09/05 04:30:01;;;;;;;6.97;5.53;;;16.00;99.90;;;;;;5020508;28;20050;-69
2022/09/05 04:32:44;;;;;;;7.43;5.78;;;15.90;99.90;;;;;;5022571;28;20045;-69
2022/09/05 04:35:12;;;;;;;6.97;5.15;;;16.00;99.90;;;;;;5018597;28;20040;-69
2022/09/05 04:37:58;;;;;;;5.90;4.82;;;15.90;99.90;;;;;;5023112;28;20114;-68
2022/09/05 04:40:34;;;;;;;8.20;5.20;;;15.90;99.90;;;;;;5016908;28;20074;-69
2022/09/05 04:43:29;;;;;;;10.40;5.93;;;15.80;99.90;;;;;;5009507;28;20045;-70
2022/09/05 04:46:05;;;;;;;11.15;5.88;;;15.90;99.90;;;;;;5018242;28;20568;-70
2022/09/05 04:48:52;;;;;;;9.80;7.32;;;15.90;99.90;;;;;;5044207;28;20132;-69
2022/09/05 04:51:47;;;;;;;9.52;5.72;;;15.90;99.90;;;;;;5016040;28;20168;-69
2022/09/05 04:54:31;;;;;;;11.38;5.22;;;15.90;99.90;;;;;;4997672;28;20137;-70
2022/09/05 04:57:19;;;;;;;8.35;5.88;;;15.90;99.90;;;;;;5007894;28;20049;-69
2022/09/05 05:00:05;;;;;;;9.57;6.07;;;15.90;99.90;;;;;;5017741;28;20052;-71
2022/09/05 05:02:40;;;;;;;7.90;6.10;;;15.90;99.90;;;;;;5026662;28;20460;-69
2022/09/05 05:05:16;;;;;;;7.90;6.43;;;15.80;99.90;;;;;;5027597;28;20042;-69
2022/09/05 05:07:54;;;;;;;7.18;5.55;;;15.80;99.90;;;;;;5029488;28;20080;-70
2022/09/05 05:10:31;;;;;;;6.95;6.25;;;15.70;99.90;;;;;;5019243;28;20041;-70
2022/09/05 05:13:25;;;;;;;10.18;6.20;;;15.80;99.90;;;;;;5027699;28;20404;-70
2022/09/05 05:15:59;;;;;;;9.43;5.75;;;15.90;99.90;;;;;;5028539;28;20167;-70
2022/09/05 05:18:33;;;;;;;10.05;5.93;;;15.90;99.90;;;;;;5020637;28;20049;-69
2022/09/05 05:21:06;;;;;;;8.35;6.35;;;15.90;99.90;;;;;;5022258;28;20488;-69
2022/09/05 05:23:42;;;;;;;10.35;5.40;;;15.90;99.90;;;;;;5021318;28;20412;-69
2022/09/05 05:26:32;;;;;;;12.35;5.68;;;15.90;99.90;;;;;;5014128;28;20034;-69
2022/09/05 05:29:07;;;;;;;14.77;7.50;;;15.90;99.90;;;;;;5015760;28;20428;-69
2022/09/05 05:31:37;;;;;;;7.55;6.78;;;16.10;99.90;;;;;;5024431;28;20042;-70
2022/09/05 05:34:13;;;;;;;13.13;6.85;;;16.40;99.90;;;;;;5027340;28;20428;-69
2022/09/05 05:36:49;;;;;;;7.85;5.75;;;16.30;99.90;;;;;;5024926;28;20053;-69
2022/09/05 05:39:26;;;;;;;10.60;5.88;;;16.30;99.90;;;;;;5023907;28;20485;-68
2022/09/05 05:41:54;;;;;;;12.32;6.55;;;16.30;99.90;;;;;;4998282;28;20130;-68
2022/09/05 05:44:26;;;;;;;20.45;7.20;;;16.30;99.90;;;;;;5041832;28;20680;-69
2022/09/05 05:47:18;;;;;;;8.98;5.30;;;16.30;99.90;;;;;;5026659;28;20041;-67
2022/09/05 05:50:11;;;;;;;7.65;5.30;;;16.40;99.90;;;;;;5027124;28;20084;-68
2022/09/05 05:52:51;;;;;;;8.00;6.22;;;16.40;99.90;;;;;;5019299;28;20420;-68
2022/09/05 05:55:36;;;;;;;8.35;6.10;;;16.50;99.90;;;;;;5007694;28;20046;-68
2022/09/05 05:58:33;;;;;;;6.93;6.05;;;16.50;99.90;;;;;;5010463;28;20117;-68
2022/09/05 06:01:12;;;;;;;10.75;6.65;;;16.60;99.90;;;;;;5020625;28;20045;-68
2022/09/05 06:04:03;;;;;;;10.43;6.30;;;16.60;99.90;;;;;;5026183;28;20140;-69
2022/09/05 06:06:37;;;;;;;12.70;6.43;;;16.60;99.90;;;;;;5025771;28;20334;-69
2022/09/05 06:09:20;;;;;;;7.72;6.25;;;16.80;99.90;;;;;;5027589;28;20049;-70
2022/09/05 06:12:17;;;;;;;7.90;5.95;;;16.80;99.90;;;;;;5009231;28;20103;-69
2022/09/05 06:15:09;;;;;;;7.78;6.45;;;16.90;99.90;;;;;;5012643;28;20029;-70
2022/09/05 06:18:23;;;;;;;10.88;6.50;;;17.00;99.90;;;;;;5025722;28;20051;-69
2022/09/05 06:21:10;;;;;;;8.20;6.00;;;17.10;99.90;;;;;;5001787;28;20049;-69
2022/09/05 06:23:51;;;;;;;9.00;6.30;;;17.20;99.90;;;;;;5016083;28;20056;-70
2022/09/05 06:26:35;;;;;;;11.18;6.78;;;17.30;99.90;;;;;;5020058;28;20037;-69
2022/09/05 06:29:03;;;;;;;6.40;4.90;;;17.30;99.90;;;;;;5014552;28;20088;-70
2022/09/05 06:32:05;;;;;;;6.07;5.18;;;17.40;99.90;;;;;;5025180;28;20099;-69
2022/09/05 06:34:55;;;;;;;7.72;6.07;;;17.50;99.90;;;;;;5042067;28;20061;-70
2022/09/05 06:37:43;;;;;;;8.18;5.97;;;17.50;99.90;;;;;;5038225;28;20041;-69
2022/09/05 06:40:47;;;;;;;8.30;5.40;;;17.70;99.90;;;;;;5026548;28;20053;-69
2022/09/05 06:43:13;;;;;;;10.32;5.90;;;17.70;99.90;;;;;;4986871;28;20058;-70
2022/09/05 06:45:54;;;;;;;6.70;6.10;;;17.80;99.90;;;;;;5024586;28;20052;-71
2022/09/05 06:48:36;;;;;;;13.32;6.80;;;17.80;99.90;;;;;;5026316;28;20133;-69
2022/09/05 06:51:24;;;;;;;6.22;5.22;;;17.90;99.90;;;;;;5024089;28;20033;-70
2022/09/05 06:54:05;;;;;;;7.70;5.60;;;18.00;99.90;;;;;;5026396;28;20057;-70
2022/09/05 06:56:45;;;;;;;7.85;6.25;;;18.10;99.90;;;;;;5002598;28;20537;-69
2022/09/05 06:59:33;;;;;;;6.32;5.70;;;18.30;99.90;;;;;;5023140;28;20049;-70
2022/09/05 07:02:11;;;;;;;7.97;6.88;;;19.80;99.90;;;;;;5025218;28;20045;-70
2022/09/05 07:05:01;;;;;;;7.05;6.28;;;19.50;99.90;;;;;;5024720;28;20037;-70
2022/09/05 07:07:53;;;;;;;6.75;6.07;;;19.10;99.90;;;;;;5039139;28;20503;-70
2022/09/05 07:10:32;;;;;;;18.90;6.35;;;19.00;99.90;;;;;;5007685;28;20046;-70
2022/09/05 07:13:14;;;;;;;6.67;6.07;;;19.00;99.90;;;;;;5012390;28;20072;-69
2022/09/05 07:16:23;;;;;;;6.97;6.38;;;19.00;99.90;;;;;;5006491;28;20049;-70
2022/09/05 07:18:58;;;;;;;10.18;5.13;;;19.10;99.90;;;;;;5018918;28;20065;-70
2022/09/05 07:21:37;;;;;;;6.18;5.57;;;19.30;99.90;;;;;;5023181;28;20041;-71
2022/09/05 07:24:06;;;;;;;9.02;5.38;;;19.50;99.90;;;;;;5014049;28;20121;-70
2022/09/05 07:26:35;;;;;;;6.45;5.18;;;19.60;99.90;;;;;;5022167;28;20423;-69
2022/09/05 07:29:06;;;;;;;6.88;6.05;;;19.80;99.90;;;;;;5038532;28;20041;-69
2022/09/05 07:31:37;;;;;;;6.70;5.35;;;20.00;99.90;;;;;;5037861;28;20127;-70
2022/09/05 07:34:18;;;;;;;7.40;4.88;;;20.10;99.90;;;;;;5007627;28;20076;-70
2022/09/05 07:36:50;;;;;;;6.82;5.55;;;20.20;99.90;;;;;;5018393;28;20392;-71
2022/09/05 07:39:21;;;;;;;9.65;4.97;;;20.30;99.90;;;;;;4992598;28;20049;-71
2022/09/05 07:41:52;;;;;;;6.07;5.15;;;20.40;99.90;;;;;;5023541;28;20053;-72
2022/09/05 07:44:50;;;;;;;5.82;5.00;;;20.50;99.90;;;;;;5004483;28;20037;-70
2022/09/05 07:47:31;;;;;;;5.95;4.57;;;20.80;99.90;;;;;;5006658;28;20134;-71
2022/09/05 07:50:03;;;;;;;6.07;5.47;;;20.90;99.90;;;;;;5017465;28;20084;-70
2022/09/05 07:52:32;;;;;;;5.90;4.55;;;21.00;99.90;;;;;;5024947;28;20061;-71
2022/09/05 07:55:00;;;;;;;6.90;5.07;;;21.10;99.90;;;;;;5025516;28;20045;-71
2022/09/05 07:57:33;;;;;;;5.13;4.63;;;21.20;99.90;;;;;;5023132;28;20560;-71
2022/09/05 08:00:09;;;;;;;7.88;4.57;;;21.40;99.90;;;;;;5039277;28;20033;-71
2022/09/05 08:02:42;;;;;;;7.05;4.90;;;21.40;99.90;;;;;;5019624;28;20053;-71
2022/09/05 08:05:08;;;;;;;4.85;4.45;;;21.50;99.90;;;;;;5024969;28;20084;-71
2022/09/05 08:07:38;;;;;;;7.05;4.68;;;21.60;99.90;;;;;;5039115;28;20134;-71
2022/09/05 08:10:09;;;;;;;7.40;5.80;;;21.70;99.90;;;;;;5024497;28;20069;-71
2022/09/05 08:13:01;;;;;;;12.45;6.05;;;21.60;99.90;;;;;;5020250;28;20049;-70
2022/09/05 08:15:28;;;;;;;8.27;5.38;;;21.60;99.90;;;;;;5022592;28;20400;-70
2022/09/05 08:18:09;;;;;;;5.82;4.55;;;21.70;99.90;;;;;;5011198;28;20485;-70
2022/09/05 08:20:56;;;;;;;10.05;4.72;;;21.70;99.90;;;;;;5027312;28;20120;-70
2022/09/05 08:23:27;;;;;;;8.98;5.38;;;21.80;99.90;;;;;;5026726;28;20053;-70
2022/09/05 08:26:02;;;;;;;7.78;4.82;;;21.90;99.90;;;;;;5021126;28;20152;-69
2022/09/05 08:28:38;;;;;;;7.13;4.63;;;22.00;99.90;;;;;;5027648;28;20053;-70
2022/09/05 08:31:11;;;;;;;8.90;5.05;;;22.10;99.90;;;;;;5027939;28;20045;-69
2022/09/05 08:33:38;;;;;;;10.18;5.65;;;22.20;99.90;;;;;;5023125;28;20079;-70
2022/09/05 08:36:40;;;;;;;8.73;5.13;;;22.40;99.90;;;;;;5014444;28;20128;-70
2022/09/05 08:39:09;;;;;;;11.25;5.28;;;22.60;99.90;;;;;;5009122;28;20085;-70
2022/09/05 08:41:40;;;;;;;12.52;6.40;;;22.70;99.90;;;;;;5009591;28;20060;-70
2022/09/05 08:44:11;;;;;;;8.32;5.13;;;22.80;99.90;;;;;;5017130;28;20040;-71
2022/09/05 08:46:54;;;;;;;5.35;4.45;;;23.00;99.90;;;;;;5028277;28;20057;-70
2022/09/05 08:49:45;;;;;;;7.43;4.38;;;23.20;99.90;;;;;;5027218;28;20041;-71
2022/09/05 08:52:27;;;;;;;11.25;5.82;;;23.30;99.90;;;;;;5043790;28;20049;-70
2022/09/05 08:55:34;;;;;;;9.07;4.47;;;23.40;99.90;;;;;;5042297;28;20041;-70
2022/09/05 08:58:24;;;;;;;4.05;3.72;;;23.50;99.90;;;;;;5006819;28;20108;-70
2022/09/05 09:00:55;;;;;;;6.10;4.90;;;23.70;99.90;;;;;;5027601;28;20034;-70
2022/09/05 09:03:27;;;;;;;;;;;23.80;99.90;;;;;;5027605;28;20053;-70
2022/09/05 09:05:56;;;;;;;4.72;4.22;;;23.80;99.90;;;;;;5026566;28;19921;-70
2022/09/05 09:08:30;;;;;;;4.78;4.22;;;23.80;99.90;;;;;;5019218;28;20081;-70
2022/09/05 09:11:04;;;;;;;7.22;4.93;;;23.90;99.90;;;;;;5016614;28;20057;-69
2022/09/05 09:14:14;;;;;;;9.68;5.18;;;24.00;99.90;;;;;;5013543;28;20042;-70
2022/09/05 09:16:52;;;;;;;5.03;4.32;;;24.00;99.90;;;;;;4940347;28;20048;-69
2022/09/05 09:19:56;;;;;;;7.72;4.90;;;24.20;99.90;;;;;;4943746;28;20050;-70
2022/09/05 09:22:35;;;;;;;3.85;3.47;;;24.20;99.90;;;;;;4994120;28;20054;-69
2022/09/05 09:25:13;;;;;;;5.40;3.53;;;24.40;99.90;;;;;;5017859;28;20049;-69
2022/09/05 09:27:57;;;;;;;5.43;3.40;;;24.50;99.90;;;;;;5006509;28;20058;-69
2022/09/05 09:30:25;;;;;;;4.35;3.90;;;24.60;99.90;;;;;;5026727;28;20037;-70
2022/09/05 09:32:50;;;;;;;5.55;3.70;;;24.80;99.90;;;;;;5015752;28;20519;-70
2022/09/05 09:35:25;;;;;;;6.43;3.65;;;24.90;99.90;;;;;;5025571;28;20124;-70
2022/09/05 09:38:21;;;;;;;8.02;3.85;;;24.90;99.90;;;;;;5018541;28;20132;-70
2022/09/05 09:41:11;;;;;;;8.60;3.28;;;25.00;99.90;;;;;;5013427;28;20076;-69
2022/09/05 09:43:51;;;;;;;7.82;3.05;;;25.00;99.90;;;;;;5024769;28;20049;-70
2022/09/05 09:46:29;;;;;;;5.68;3.33;;;25.30;99.90;;;;;;5022525;28;20057;-69
2022/09/05 09:49:16;;;;;;;4.00;2.90;;;25.60;99.90;;;;;;5016376;28;20053;-69
2022/09/05 09:52:12;;;;;;;8.73;4.32;;;25.40;99.90;;;;;;5027430;28;20120;-69
2022/09/05 09:54:58;;;;;;;3.50;3.00;;;25.50;99.90;;;;;;5010986;28;20073;-70
2022/09/05 09:58:06;;;;;;;7.82;2.97;;;25.50;99.90;;;;;;5021784;28;20073;-69
2022/09/05 10:00:59;;;;;;;4.22;2.65;;;25.60;99.90;;;;;;5005294;28;20069;-69
2022/09/05 10:03:47;;;;;;;6.32;3.33;;;25.70;99.90;;;;;;4998392;28;20053;-69
2022/09/05 10:06:12;;;;;;;5.72;3.22;;;25.80;99.90;;;;;;5026575;28;20041;-70
2022/09/05 10:08:44;;;;;;;2.95;2.65;;;26.00;99.90;;;;;;5022028;28;20056;-70
2022/09/05 10:11:49;;;;;;;4.78;2.58;;;26.10;99.90;;;;;;5020972;28;20041;-69
2022/09/05 10:14:37;;;;;;;3.20;2.15;;;26.10;99.90;;;;;;5006884;28;20072;-69
2022/09/05 10:17:45;;;;;;;2.65;2.45;;;26.30;99.90;;;;;;5027119;28;20460;-69
2022/09/05 10:20:28;;;;;;;4.20;2.67;;;26.40;99.90;;;;;;5026427;28;20150;-69
2022/09/05 10:23:09;;;;;;;2.40;2.20;;;26.70;99.90;;;;;;5021783;28;20052;-68
2022/09/05 10:26:01;;;;;;;3.08;2.60;;;26.70;99.90;;;;;;5025012;28;20042;-70
2022/09/05 10:29:05;;;;;;;4.13;2.65;;;26.70;99.90;;;;;;5024617;28;20071;-68
2022/09/05 10:31:48;;;;;;;4.38;2.22;;;26.70;99.90;;;;;;5043180;28;20054;-68
2022/09/05 10:34:19;;;;;;;3.22;2.40;;;26.80;99.90;;;;;;5023317;28;20033;-68
2022/09/05 10:37:03;;;;;;;4.32;1.98;;;26.80;99.90;;;;;;5025264;28;20565;-68
2022/09/05 10:39:36;;;;;;;4.13;2.17;;;26.90;99.90;;;;;;5026703;28;20467;-69
2022/09/05 10:42:24;;;;;;;4.57;2.00;;;26.80;99.90;;;;;;5037619;28;20048;-70
2022/09/05 10:44:54;;;;;;;3.72;2.33;;;26.90;99.90;;;;;;5025578;28;20179;-70
2022/09/05 10:47:58;;;;;;;2.00;1.80;;;27.00;99.90;;;;;;5032329;28;20114;-70
2022/09/05 10:50:32;;;;;;;4.15;2.05;;;27.00;99.90;;;;;;4991640;28;20053;-70
2022/09/05 10:53:08;;;;;;;3.47;2.22;;;27.20;99.90;;;;;;5027208;28;20296;-69
2022/09/05 10:55:48;;;;;;;6.72;2.08;;;27.30;99.90;;;;;;5018761;28;20076;-69
2022/09/05 10:58:32;;;;;;;5.45;3.50;;;27.20;99.90;;;;;;5024278;28;20077;-69
2022/09/05 11:01:18;;;;;;;2.65;2.03;;;27.20;99.90;;;;;;5025618;28;20467;-68
2022/09/05 11:03:51;;;;;;;3.08;2.17;;;27.00;99.90;;;;;;5025186;28;20053;-69
2022/09/05 11:06:22;;;;;;;5.07;2.33;;;27.20;99.90;;;;;;5025595;28;20075;-70
2022/09/05 11:09:31;;;;;;;5.53;2.50;;;27.50;99.90;;;;;;5022378;28;20049;-69
2022/09/05 11:12:07;;;;;;;3.17;2.88;;;27.60;99.90;;;;;;5015230;28;20109;-70
2022/09/05 11:14:36;;;;;;;2.75;2.30;;;27.50;99.90;;;;;;5024253;28;20428;-69
2022/09/05 11:17:21;;;;;;;3.53;2.10;;;27.60;99.90;;;;;;5026440;28;20046;-69
2022/09/05 11:20:23;;;;;;;2.63;2.20;;;27.60;99.90;;;;;;5025839;28;20053;-70
2022/09/05 11:22:59;;;;;;;3.33;2.22;;;27.50;99.90;;;;;;5004658;28;20123;-69
2022/09/05 11:25:27;;;;;;;3.35;1.98;;;27.50;99.90;;;;;;5027931;28;20152;-69
2022/09/05 11:27:57;;;;;;;1.83;1.63;;;27.60;99.90;;;;;;5005348;28;20558;-69
2022/09/05 11:30:26;;;;;;;2.88;1.63;;;27.60;99.90;;;;;;5014085;28;20132;-68
2022/09/05 11:33:23;;;;;;;2.80;1.67;;;27.90;99.90;;;;;;5023935;28;20045;-68
2022/09/05 11:35:56;;;;;;;2.03;1.58;;;27.90;99.90;;;;;;5016136;28;20323;-68
2022/09/05 11:38:39;;;;;;;1.88;1.65;;;27.80;99.90;;;;;;5006115;28;20114;-68
2022/09/05 11:41:37;;;;;;;4.30;2.00;;;27.80;99.90;;;;;;5017081;28;20140;-68
2022/09/05 11:44:24;;;;;;;6.57;1.65;;;27.90;99.90;;;;;;5005454;28;20081;-68
2022/09/05 11:47:17;;;;;;;4.72;2.05;;;28.30;99.90;;;;;;5006353;28;20125;-68
2022/09/05 11:50:01;;;;;;;2.72;1.85;;;28.20;99.90;;;;;;5005770;28;20045;-68
2022/09/05 11:52:47;;;;;;;3.50;1.58;;;28.20;99.90;;;;;;5020710;28;20150;-68
2022/09/05 11:55:51;;;;;;;5.15;2.05;;;28.20;99.90;;;;;;5017587;28;20083;-68
2022/09/05 11:58:49;;;;;;;4.57;2.05;;;28.30;99.90;;;;;;5018219;28;20066;-67
2022/09/05 12:01:27;;;;;;;2.67;1.65;;;28.20;99.90;;;;;;5017335;28;20065;-68
2022/09/05 12:04:15;;;;;;;4.75;1.80;;;28.20;99.90;;;;;;5022217;28;20057;-69
2022/09/05 12:06:59;;;;;;;1.88;1.67;;;28.40;99.90;;;;;;5025540;28;20041;-69
2022/09/05 12:09:49;;;;;;;2.03;1.48;;;28.60;99.90;;;;;;5024117;28;20071;-69
2022/09/05 12:12:28;;;;;;;2.35;1.88;;;28.30;99.90;;;;;;5020067;28;20041;-68
2022/09/05 12:15:20;;;;;;;2.75;1.85;;;28.20;99.90;;;;;;5014071;28;20042;-68
2022/09/05 12:17:59;;;;;;;2.92;1.85;;;28.10;99.90;;;;;;5010631;28;20683;-68
2022/09/05 12:20:43;;;;;;;2.28;1.60;;;28.00;99.90;;;;;;5010964;28;20056;-69
2022/09/05 12:23:26;;;;;;;4.30;2.30;;;27.80;99.90;;;;;;5032540;28;20069;-68
2022/09/05 12:26:03;;;;;;;2.15;1.83;;;27.80;99.90;;;;;;5018084;28;20124;-68
2022/09/05 12:29:02;;;;;;;6.05;2.25;;;27.90;99.90;;;;;;5020278;28;20044;-67
2022/09/05 12:31:39;;;;;;;16.17;3.90;;;28.00;99.90;;;;;;5006056;28;20056;-67
2022/09/05 12:34:17;;;;;;;7.20;1.75;;;28.20;99.90;;;;;;5013662;28;20037;-68
2022/09/05 12:36:55;;;;;;;4.47;2.38;;;28.50;99.90;;;;;;5022932;28;20050;-68
2022/09/05 12:39:36;;;;;;;3.25;2.17;;;28.40;99.90;;;;;;5018924;28;20668;-68
2022/09/05 12:42:20;;;;;;;30.95;3.97;;;28.40;99.90;;;;;;5015945;28;20408;-68
2022/09/05 12:44:57;;;;;;;10.82;2.22;;;28.60;99.90;;;;;;5013356;28;20049;-69
2022/09/05 12:47:28;;;;;;;9.38;2.13;;;28.90;99.90;;;;;;5007000;28;20096;-67
2022/09/05 12:50:05;;;;;;;3.97;1.70;;;29.10;99.90;;;;;;5021106;28;20242;-68
2022/09/05 12:52:32;;;;;;;4.70;1.55;;;29.10;99.90;;;;;;5017384;28;20061;-69
2022/09/05 12:55:19;;;;;;;9.98;2.58;;;29.10;99.90;;;;;;5014304;28;20053;-70
2022/09/05 12:57:49;;;;;;;2.70;1.90;;;29.40;99.90;;;;;;5027794;28;20030;-68
2022/09/05 13:00:20;;;;;;;2.20;1.48;;;29.40;99.90;;;;;;5018982;28;20404;-68
2022/09/05 13:03:00;;;;;;;4.13;1.48;;;29.10;99.90;;;;;;5020034;28;20085;-69
2022/09/05 13:05:50;;;;;;;2.33;1.50;;;29.20;99.90;;;;;;5015834;28;20060;-68
2022/09/05 13:08:20;;;;;;;1.80;1.65;;;29.20;99.90;;;;;;5023434;28;20416;-68
2022/09/05 13:10:51;;;;;;;5.22;2.20;;;29.20;99.90;;;;;;5027032;28;20416;-68
2022/09/05 13:13:30;;;;;;;5.65;2.25;;;29.20;99.90;;;;;;5023542;28;20500;-68
2022/09/05 13:15:58;;;;;;;5.30;1.50;;;29.20;99.90;;;;;;5027488;28;20033;-68
2022/09/05 13:18:29;;;;;;;2.53;2.15;;;28.90;99.90;;;;;;5017217;28;20054;-68
2022/09/05 13:21:04;;;;;;;2.15;1.52;;;28.60;99.90;;;;;;5042172;28;20128;-68
2022/09/05 13:23:52;;;;;;;2.00;1.67;;;28.60;99.90;;;;;;5026088;28;20450;-69
2022/09/05 13:26:36;;;;;;;2.42;1.55;;;28.80;99.90;;;;;;5038694;28;20049;-70
2022/09/05 13:29:16;;;;;;;2.92;1.45;;;28.90;99.90;;;;;;5024445;28;20060;-70
2022/09/05 13:31:41;;;;;;;4.97;1.60;;;29.10;99.50;;;;;;5013833;28;20050;-70
2022/09/05 13:34:18;;;;;;;2.15;1.40;;;29.20;99.20;;;;;;5022654;28;20057;-71
2022/09/05 13:36:50;;;;;;;2.47;1.63;;;29.00;99.00;;;;;;5020452;28;20049;-70
2022/09/05 13:39:21;;;;;;;3.47;1.42;;;29.40;99.60;;;;;;5020841;28;20041;-71
2022/09/05 13:41:58;;;;;;;1.92;1.50;;;29.40;99.40;;;;;;5015431;28;20056;-71
2022/09/05 13:44:25;;;;;;;2.72;1.60;;;29.20;99.20;;;;;;5019525;28;20095;-68
2022/09/05 13:46:53;;;;;;;1.63;1.35;;;29.10;99.30;;;;;;5016746;28;20095;-70
2022/09/05 13:49:33;;;;;;;6.15;1.90;;;28.80;99.40;;;;;;5025269;28;20076;-71
2022/09/05 13:52:18;;;;;;;2.88;1.25;;;28.70;99.60;;;;;;5019071;28;20202;-69
2022/09/05 13:54:43;;;;;;;2.30;1.58;;;28.50;99.80;;;;;;5037627;28;20134;-70
2022/09/05 13:57:28;;;;;;;4.40;2.00;;;28.30;99.90;;;;;;5020190;28;20084;-70
2022/09/05 14:00:12;;;;;;;1.80;1.35;;;28.20;99.90;;;;;;5038633;28;20058;-69